Adrian, Illinois
Current Conditions -  °F | °C
As of 6:35 PM on Monday 24 Nov 2014 (Local Time) from KFSW Reporting Station
Overcast Overcast  
Wind Chill: -6°   Ceiling: 2700
Heat Index: -1°   Visibility: 10mi
Dew Point: -3°   Wind: 10mph
Humidity: 86%   Direction: 260°W
Pressure: 29.84"   Gusts: 16mph
Location:  40.52°N, 91.17°W
Report Text: KFSW 250035Z AUTO 26009G14KT 10SM OVC027 M01/M03 A2984 RMK AO2
Loading
Personal Weather Stations






























Interactive Weather Map New forecast layout! Learn more

10-Day Weather Forecast

Advertisements
Track Severe Weather on mobile